Terminal Aerodrome Forecast
Issued by NWS

Home | Current Version | Previous Version | Text Only | Print | Product List | Glossary On
Versions: 1 2 3 4 5 6 7 8 9 10 11 12 13 14 15 16 17 18 19 20 21 22 23
000
FTUS46 KOTX 042334
TAFMWH
TAF
KMWH 042334Z 0500/0524 24008KT P6SM FEW200
     FM050200 31012G16KT P6SM FEW100
     FM050500 36015G28KT P6SM FEW100
     FM051600 01019G25KT P6SM FEW100
     FM052200 02011KT P6SM SKC=

USA.gov is the U.S. government's official web portal to all federal, state and local government web resources and services.